createdAt,value
2022-11-22T00:00:43.013Z,7.20
2022-11-22T00:02:45.476Z,7.20
2022-11-22T00:04:47.984Z,7.10
2022-11-22T00:06:50.519Z,7.10
2022-11-22T00:08:53.030Z,7.00
2022-11-22T00:10:55.534Z,7.00
2022-11-22T00:12:58.100Z,7.00
2022-11-22T00:15:00.641Z,6.90
2022-11-22T00:17:03.285Z,6.90
2022-11-22T00:19:05.773Z,6.90
2022-11-22T00:21:08.654Z,6.90
2022-11-22T00:23:11.113Z,6.90
2022-11-22T00:25:14.141Z,6.90
2022-11-22T00:27:16.786Z,6.80
2022-11-22T00:29:19.345Z,6.80
2022-11-22T00:31:21.916Z,6.80
2022-11-22T00:33:24.402Z,6.80
2022-11-22T00:35:26.906Z,6.80
2022-11-22T00:37:29.477Z,6.80
2022-11-22T00:39:32.101Z,6.80
2022-11-22T00:41:34.800Z,6.70
2022-11-22T00:43:37.408Z,6.80
2022-11-22T00:45:41.242Z,6.80
2022-11-22T00:47:44.010Z,6.80
2022-11-22T00:49:46.893Z,6.90
2022-11-22T00:51:49.445Z,6.90
2022-11-22T00:53:51.931Z,6.90
2022-11-22T00:55:54.449Z,6.90
2022-11-22T00:57:56.901Z,6.90
2022-11-22T00:59:59.369Z,7.00
2022-11-22T01:02:01.897Z,6.90
2022-11-22T01:04:04.673Z,7.00
2022-11-22T01:06:07.140Z,7.00
2022-11-22T01:08:09.634Z,7.00
2022-11-22T01:10:12.108Z,6.90
2022-11-22T01:12:14.672Z,6.90
2022-11-22T01:14:17.333Z,6.90
2022-11-22T01:16:19.836Z,6.90
2022-11-22T01:18:22.463Z,6.90
2022-11-22T01:20:25.127Z,6.90
2022-11-22T01:22:27.634Z,6.90
2022-11-22T01:24:30.140Z,6.90
2022-11-22T01:26:33.364Z,6.90
2022-11-22T01:28:36.157Z,6.90
2022-11-22T01:30:38.746Z,6.90
2022-11-22T01:32:41.216Z,6.90
2022-11-22T01:34:43.729Z,6.90
2022-11-22T01:36:46.201Z,6.90
2022-11-22T01:38:48.718Z,6.90
2022-11-22T01:40:51.168Z,6.90
2022-11-22T01:42:54.659Z,6.90
2022-11-22T01:45:16.304Z,7.00
2022-11-22T01:47:20.029Z,7.00
2022-11-22T01:49:25.651Z,7.00
2022-11-22T01:51:29.844Z,7.00
2022-11-22T01:53:33.701Z,7.00
2022-11-22T01:55:36.356Z,7.00
2022-11-22T01:57:40.315Z,7.00
2022-11-22T01:59:44.520Z,6.90
2022-11-22T02:01:47.004Z,6.90
2022-11-22T02:03:51.197Z,7.00
2022-11-22T02:05:54.211Z,7.00
2022-11-22T02:07:58.723Z,6.90
2022-11-22T02:10:01.212Z,7.00
2022-11-22T02:12:05.076Z,7.00
2022-11-22T02:14:07.978Z,6.90
2022-11-22T02:16:11.086Z,6.90
2022-11-22T02:18:13.900Z,6.90
2022-11-22T02:20:16.980Z,6.90
2022-11-22T02:22:22.456Z,6.90
2022-11-22T02:24:26.680Z,6.80
2022-11-22T02:26:29.634Z,6.80
2022-11-22T02:28:34.159Z,6.80
2022-11-22T02:30:36.916Z,6.80
2022-11-22T02:32:39.383Z,6.80
2022-11-22T02:34:42.777Z,6.80
2022-11-22T02:36:47.161Z,6.80
2022-11-22T02:38:49.723Z,6.80
2022-11-22T02:40:53.472Z,6.80
2022-11-22T02:42:57.866Z,6.80
2022-11-22T02:45:00.327Z,6.80
2022-11-22T02:47:02.816Z,6.80
2022-11-22T02:49:05.308Z,6.80
2022-11-22T02:51:07.903Z,6.90
2022-11-22T02:53:11.311Z,6.90
2022-11-22T02:55:13.896Z,6.80
2022-11-22T02:57:16.356Z,6.90
2022-11-22T02:59:18.868Z,6.90
2022-11-22T03:01:21.409Z,6.90
2022-11-22T03:03:23.943Z,6.90
2022-11-22T03:05:26.413Z,6.90
2022-11-22T03:07:29.961Z,6.90
2022-11-22T03:09:32.684Z,6.90
2022-11-22T03:11:35.328Z,6.90
2022-11-22T03:13:37.839Z,6.90
2022-11-22T03:15:40.310Z,6.90
2022-11-22T03:17:42.817Z,6.90
2022-11-22T03:19:45.273Z,6.90
2022-11-22T03:21:48.212Z,7.00
2022-11-22T03:23:50.685Z,7.00
2022-11-22T03:25:53.163Z,7.00
2022-11-22T03:27:58.557Z,7.00
2022-11-22T03:30:01.072Z,7.00
2022-11-22T03:32:03.558Z,7.00
2022-11-22T03:34:06.063Z,7.00
2022-11-22T03:36:08.567Z,7.00
2022-11-22T03:38:11.058Z,7.00
2022-11-22T03:40:14.226Z,7.00
2022-11-22T03:42:21.616Z,7.10
2022-11-22T03:44:21.185Z,7.10
2022-11-22T03:46:23.668Z,7.00
2022-11-22T03:48:26.252Z,7.00
2022-11-22T03:50:28.726Z,7.00
2022-11-22T03:52:31.193Z,7.00
2022-11-22T03:54:33.766Z,7.00
2022-11-22T03:56:36.239Z,6.90
2022-11-22T03:58:38.737Z,6.90
2022-11-22T04:00:42.716Z,6.90
2022-11-22T04:02:45.214Z,6.90
2022-11-22T04:04:47.707Z,6.90
2022-11-22T04:06:50.185Z,7.00
2022-11-22T04:08:52.729Z,7.00
2022-11-22T04:10:55.379Z,7.00
2022-11-22T04:12:58.089Z,7.00
2022-11-22T04:15:06.660Z,7.00
2022-11-22T04:17:10.984Z,7.00
2022-11-22T04:19:13.452Z,7.00
2022-11-22T04:21:33.899Z,7.00
2022-11-22T04:23:36.467Z,7.00
2022-11-22T04:25:39.774Z,6.90
2022-11-22T04:27:42.249Z,6.90
2022-11-22T04:29:44.837Z,6.90
2022-11-22T04:32:05.701Z,6.90
2022-11-22T04:34:08.214Z,6.90
2022-11-22T04:36:13.450Z,6.80
2022-11-22T04:38:15.785Z,6.80
2022-11-22T04:40:18.430Z,6.80
2022-11-22T04:42:39.061Z,6.80
2022-11-22T04:44:41.573Z,6.80
2022-11-22T04:46:44.027Z,6.80
2022-11-22T04:48:46.541Z,6.80
2022-11-22T04:51:07.116Z,6.80
2022-11-22T04:53:09.706Z,6.80
2022-11-22T04:55:12.213Z,6.80
2022-11-22T04:57:14.706Z,6.80
2022-11-22T04:59:17.340Z,6.80
2022-11-22T05:01:19.897Z,6.80
2022-11-22T05:03:22.390Z,6.80
2022-11-22T05:05:25.145Z,6.80
2022-11-22T05:07:27.839Z,6.70
2022-11-22T05:09:30.667Z,6.80
2022-11-22T05:11:34.293Z,6.80
2022-11-22T05:13:37.629Z,6.80
2022-11-22T05:15:40.181Z,6.70
2022-11-22T05:17:42.668Z,6.70
2022-11-22T05:19:49.176Z,6.70
2022-11-22T05:21:49.613Z,6.70
2022-11-22T05:23:55.312Z,6.60
2022-11-22T05:25:57.795Z,6.60
2022-11-22T05:28:00.291Z,6.80
2022-11-22T05:30:03.087Z,6.60
2022-11-22T05:32:05.629Z,6.60
2022-11-22T05:34:08.113Z,6.50
2022-11-22T05:36:10.999Z,6.50
2022-11-22T05:38:13.468Z,6.50
2022-11-22T05:40:16.062Z,6.40
2022-11-22T05:42:18.786Z,6.40
2022-11-22T05:44:21.277Z,5.70
2022-11-22T05:46:25.481Z,6.30
2022-11-22T05:48:28.064Z,6.30
2022-11-22T05:50:30.526Z,6.30
2022-11-22T05:52:33.015Z,6.20
2022-11-22T05:54:35.500Z,6.20
2022-11-22T05:56:37.996Z,6.10
2022-11-22T05:58:40.949Z,6.10
2022-11-22T06:00:43.584Z,6.10
2022-11-22T06:02:46.032Z,6.00
2022-11-22T06:04:48.605Z,6.10
2022-11-22T06:06:51.095Z,6.00
2022-11-22T06:08:53.588Z,6.10
2022-11-22T06:10:56.171Z,6.00
2022-11-22T06:12:58.661Z,6.10
2022-11-22T06:15:01.164Z,6.10
2022-11-22T06:17:03.788Z,6.10
2022-11-22T06:19:06.275Z,6.10
2022-11-22T06:21:10.557Z,6.20
2022-11-22T06:23:13.046Z,6.10
2022-11-22T06:25:15.634Z,6.10
2022-11-22T06:27:18.147Z,6.10
2022-11-22T06:29:20.644Z,6.10
2022-11-22T06:31:24.329Z,6.10
2022-11-22T06:33:26.784Z,6.10
2022-11-22T06:35:29.400Z,6.10
2022-11-22T06:37:31.853Z,6.10
2022-11-22T06:39:34.636Z,6.10
2022-11-22T06:41:37.311Z,6.10
2022-11-22T06:43:45.108Z,6.10
2022-11-22T06:45:44.664Z,6.10
2022-11-22T06:47:47.172Z,6.10
2022-11-22T06:49:49.644Z,6.10
2022-11-22T06:51:52.152Z,6.10
2022-11-22T06:53:54.954Z,6.10
2022-11-22T06:56:01.732Z,6.10
2022-11-22T06:58:04.320Z,6.10
2022-11-22T07:00:08.361Z,6.00
2022-11-22T07:02:11.827Z,6.10
2022-11-22T07:04:14.282Z,6.10
2022-11-22T07:06:17.616Z,6.10
2022-11-22T07:08:20.086Z,6.10
2022-11-22T07:10:22.588Z,6.10
2022-11-22T07:12:25.773Z,6.10
2022-11-22T07:14:28.263Z,6.10
2022-11-22T07:16:30.859Z,6.10
2022-11-22T07:18:33.328Z,6.10
2022-11-22T07:20:35.802Z,6.00
2022-11-22T07:22:39.133Z,6.10
2022-11-22T07:24:41.636Z,6.00
2022-11-22T07:26:44.153Z,6.00
2022-11-22T07:28:46.709Z,6.00
2022-11-22T07:30:49.349Z,6.10
2022-11-22T07:32:51.837Z,6.10
2022-11-22T07:34:54.345Z,6.10
2022-11-22T07:37:00.490Z,6.10
2022-11-22T07:39:02.324Z,6.10
2022-11-22T07:41:05.717Z,6.10
2022-11-22T07:43:08.175Z,6.10
2022-11-22T07:45:11.271Z,6.10
2022-11-22T07:47:18.411Z,6.20
2022-11-22T07:49:18.120Z,6.20
2022-11-22T07:51:20.627Z,6.30
2022-11-22T07:53:23.097Z,6.30
2022-11-22T07:55:26.412Z,6.40
2022-11-22T07:57:28.883Z,6.40
2022-11-22T07:59:31.562Z,6.50
2022-11-22T08:01:34.303Z,6.60
2022-11-22T08:03:37.016Z,6.70
2022-11-22T08:05:39.533Z,6.90
2022-11-22T08:07:46.640Z,7.00
2022-11-22T08:09:49.167Z,7.20
2022-11-22T08:11:51.624Z,7.40
2022-11-22T08:13:54.137Z,7.50
2022-11-22T08:16:03.669Z,7.60
2022-11-22T08:18:02.820Z,7.60
2022-11-22T08:20:06.423Z,7.70
2022-11-22T08:22:08.913Z,7.60
2022-11-22T08:24:11.368Z,7.60
2022-11-22T08:26:15.576Z,7.70
2022-11-22T08:28:18.067Z,7.70
2022-11-22T08:30:20.584Z,7.70
2022-11-22T08:32:23.121Z,7.70
2022-11-22T08:34:25.673Z,7.60
2022-11-22T08:36:28.368Z,7.60
2022-11-22T08:38:31.034Z,7.60
2022-11-22T08:40:38.009Z,7.50
2022-11-22T08:42:37.809Z,7.50
2022-11-22T08:44:40.283Z,7.40
2022-11-22T08:46:42.781Z,7.40
2022-11-22T08:48:45.566Z,7.30
2022-11-22T08:50:50.344Z,7.30
2022-11-22T08:52:53.938Z,7.30
2022-11-22T08:54:56.446Z,7.30
2022-11-22T08:56:58.916Z,7.40
2022-11-22T08:59:01.656Z,7.40
2022-11-22T09:01:05.294Z,7.40
2022-11-22T09:03:07.809Z,7.40
2022-11-22T09:05:10.268Z,7.50
2022-11-22T09:11:21.537Z,7.60
2022-11-22T09:13:24.037Z,7.70
2022-11-22T09:15:26.544Z,7.70
2022-11-22T09:17:29.046Z,7.80
2022-11-22T09:19:31.830Z,7.90
2022-11-22T09:21:34.531Z,7.90
2022-11-22T09:23:37.407Z,8.00
2022-11-22T09:25:39.865Z,8.00
2022-11-22T09:27:42.388Z,8.10
2022-11-22T09:29:45.041Z,8.10
2022-11-22T09:31:47.538Z,8.20
2022-11-22T09:33:50.328Z,8.20
2022-11-22T09:35:54.923Z,8.40
2022-11-22T09:37:57.660Z,8.40
2022-11-22T09:40:00.136Z,8.60
2022-11-22T09:42:13.443Z,8.60
2022-11-22T09:44:18.468Z,8.70
2022-11-22T09:46:25.060Z,8.70
2022-11-22T09:48:35.675Z,8.80
2022-11-22T09:50:41.057Z,8.90
2022-11-22T09:52:45.356Z,9.00
2022-11-22T09:54:49.804Z,9.10
2022-11-22T09:56:54.012Z,9.10
2022-11-22T09:58:58.320Z,9.10
2022-11-22T10:01:03.964Z,9.20
2022-11-22T10:03:08.585Z,9.30
2022-11-22T10:05:15.145Z,9.40
2022-11-22T10:07:19.598Z,9.50
2022-11-22T10:09:25.432Z,9.60
2022-11-22T10:11:36.615Z,9.80
2022-11-22T10:13:39.949Z,10.00
2022-11-22T10:15:46.621Z,10.20
2022-11-22T10:17:52.695Z,10.40
2022-11-22T10:19:58.916Z,10.50
2022-11-22T10:22:02.252Z,10.40
2022-11-22T10:24:06.706Z,10.50
2022-11-22T10:26:14.999Z,10.70
2022-11-22T10:28:18.467Z,10.70
2022-11-22T10:30:21.371Z,10.90
2022-11-22T10:32:25.658Z,10.90
2022-11-22T10:34:31.538Z,10.80
2022-11-22T10:36:37.533Z,10.80
2022-11-22T10:38:47.815Z,10.80
2022-11-22T10:40:52.155Z,10.90
2022-11-22T10:43:01.730Z,10.50
2022-11-22T10:45:06.050Z,10.40
2022-11-22T10:47:12.144Z,10.30
2022-11-22T10:49:17.120Z,10.20
2022-11-22T10:51:21.910Z,10.40
2022-11-22T10:53:27.786Z,10.50
2022-11-22T10:55:41.359Z,10.40
2022-11-22T10:57:45.676Z,10.10
2022-11-22T10:59:52.066Z,9.90
2022-11-22T11:01:58.221Z,9.70
2022-11-22T11:04:01.392Z,9.60
2022-11-22T11:06:22.784Z,9.80
2022-11-22T11:08:38.929Z,9.90
2022-11-22T11:10:29.137Z,9.80
2022-11-22T11:12:25.830Z,9.50
2022-11-22T11:14:30.387Z,9.40
2022-11-22T11:16:35.060Z,9.20
2022-11-22T11:18:39.637Z,9.10
2022-11-22T11:20:42.960Z,9.00
2022-11-22T11:23:13.269Z,9.00
2022-11-22T11:24:50.009Z,8.90
2022-11-22T11:26:54.610Z,8.90
2022-11-22T11:29:16.237Z,8.90
2022-11-22T11:31:20.523Z,8.90
2022-11-22T11:33:27.112Z,8.90
2022-11-22T11:35:30.103Z,8.80
2022-11-22T11:37:33.674Z,9.20
2022-11-22T11:39:39.389Z,8.80
2022-11-22T11:41:43.503Z,8.80
2022-11-22T11:43:45.454Z,8.80
2022-11-22T11:45:48.388Z,8.90
2022-11-22T11:47:50.952Z,8.80
2022-11-22T11:49:54.844Z,8.90
2022-11-22T11:51:58.582Z,9.00
2022-11-22T11:54:02.318Z,9.20
2022-11-22T11:56:38.951Z,9.30
2022-11-22T12:00:58.400Z,9.30
2022-11-22T12:03:01.514Z,9.50
2022-11-22T12:05:05.580Z,9.50
2022-11-22T12:07:17.588Z,9.50
2022-11-22T12:09:27.994Z,9.40
2022-11-22T12:11:33.752Z,9.20
2022-11-22T12:13:51.776Z,9.20
2022-11-22T12:15:46.348Z,9.10
2022-11-22T12:17:51.227Z,9.00
2022-11-22T12:19:57.336Z,9.00
2022-11-22T12:22:01.519Z,9.20
2022-11-22T12:24:26.893Z,9.50
2022-11-22T12:26:10.106Z,9.60
2022-11-22T12:30:32.250Z,9.60
2022-11-22T12:32:36.796Z,9.70
2022-11-22T12:34:41.326Z,9.70
2022-11-22T12:36:44.992Z,9.80
2022-11-22T12:38:47.852Z,9.70
2022-11-22T12:40:52.168Z,9.70
2022-11-22T12:42:56.436Z,9.80
2022-11-22T12:45:00.993Z,9.80
2022-11-22T12:47:05.450Z,9.80
2022-11-22T12:49:09.856Z,9.80
2022-11-22T12:51:14.848Z,9.70
2022-11-22T12:53:19.153Z,9.60
2022-11-22T12:55:23.479Z,9.70
2022-11-22T12:57:27.956Z,9.50
2022-11-22T12:59:32.296Z,9.50
2022-11-22T13:01:37.321Z,9.40
2022-11-22T13:03:41.736Z,9.40
2022-11-22T13:05:45.731Z,9.30
2022-11-22T13:07:52.306Z,9.20
2022-11-22T13:09:57.814Z,9.20
2022-11-22T13:12:02.352Z,9.20
2022-11-22T13:14:06.607Z,9.10
2022-11-22T13:16:09.809Z,9.20
2022-11-22T13:18:14.251Z,9.20
2022-11-22T13:20:18.099Z,9.30
2022-11-22T13:22:23.435Z,9.30
2022-11-22T13:24:31.981Z,9.30
2022-11-22T13:26:36.720Z,9.30
2022-11-22T13:28:40.034Z,9.40
2022-11-22T13:30:44.536Z,9.50
2022-11-22T13:32:49.203Z,9.60
2022-11-22T13:35:02.690Z,9.70
2022-11-22T13:37:07.300Z,9.60
2022-11-22T13:39:12.844Z,9.60
2022-11-22T13:41:21.773Z,9.60
2022-11-22T13:43:45.241Z,9.50
2022-11-22T13:45:48.277Z,9.40
2022-11-22T13:47:51.148Z,9.40
2022-11-22T13:49:53.872Z,9.30
2022-11-22T13:51:56.719Z,9.30
2022-11-22T13:54:18.446Z,9.30
2022-11-22T13:56:38.751Z,9.30
2022-11-22T13:58:50.457Z,9.30
2022-11-22T14:00:50.585Z,9.30
2022-11-22T14:02:54.317Z,9.30
2022-11-22T14:04:56.800Z,9.30
2022-11-22T14:07:01.485Z,9.40
2022-11-22T14:09:21.769Z,9.40
2022-11-22T14:11:28.847Z,9.40
2022-11-22T14:13:34.416Z,9.40
2022-11-22T14:15:49.573Z,9.40
2022-11-22T14:17:55.690Z,9.40
2022-11-22T14:20:01.372Z,9.40
2022-11-22T14:22:13.424Z,9.40
2022-11-22T14:24:18.828Z,9.40
2022-11-22T14:26:23.996Z,9.40
2022-11-22T14:28:37.632Z,9.40
2022-11-22T14:30:40.701Z,9.40
2022-11-22T14:32:49.124Z,9.30
2022-11-22T14:35:09.202Z,9.30
2022-11-22T14:37:29.301Z,9.20
2022-11-22T14:39:51.353Z,9.30
2022-11-22T14:41:53.924Z,9.20
2022-11-22T14:43:58.314Z,9.10
2022-11-22T14:46:02.506Z,9.10
2022-11-22T14:48:07.480Z,9.00
2022-11-22T14:50:11.810Z,8.90
2022-11-22T14:52:16.717Z,8.80
2022-11-22T14:54:21.990Z,8.80
2022-11-22T14:56:27.115Z,8.80
2022-11-22T14:58:29.811Z,8.80
2022-11-22T15:00:37.562Z,8.70
2022-11-22T15:02:57.618Z,8.70
2022-11-22T15:09:11.518Z,8.60
2022-11-22T15:09:22.731Z,8.60
2022-11-22T15:09:46.537Z,8.50
2022-11-22T15:11:48.459Z,8.50
2022-11-22T15:14:25.058Z,8.50
2022-11-22T15:58:49.037Z,7.70
2022-11-22T16:00:51.638Z,7.70
2022-11-22T16:02:56.493Z,7.70
2022-11-22T16:06:04.430Z,7.70
2022-11-22T16:07:06.645Z,7.70
2022-11-22T16:09:17.348Z,7.60
2022-11-22T16:11:20.863Z,7.60
2022-11-22T16:13:28.200Z,7.60
2022-11-22T16:15:34.908Z,7.50
2022-11-22T16:17:37.796Z,7.50
2022-11-22T16:19:40.275Z,7.50
2022-11-22T16:21:44.542Z,7.50
2022-11-22T16:23:47.753Z,7.50
2022-11-22T16:25:52.032Z,7.40
2022-11-22T16:27:54.507Z,7.40
2022-11-22T16:29:58.920Z,7.30
2022-11-22T16:32:02.946Z,7.30
2022-11-22T16:34:10.620Z,7.30
2022-11-22T16:36:14.395Z,7.30
2022-11-22T16:38:16.866Z,7.30
2022-11-22T16:40:19.631Z,7.20
2022-11-22T16:42:22.229Z,7.20
2022-11-22T16:44:24.893Z,7.10
2022-11-22T16:46:27.363Z,7.10
2022-11-22T16:48:32.198Z,7.10
2022-11-22T16:50:34.844Z,7.10
2022-11-22T16:52:37.631Z,7.00
2022-11-22T16:54:40.505Z,7.00
2022-11-22T16:56:43.003Z,7.00
2022-11-22T16:58:45.677Z,7.00
2022-11-22T17:00:49.102Z,7.10
2022-11-22T17:02:51.812Z,7.10
2022-11-22T17:04:54.292Z,7.10
2022-11-22T17:06:56.782Z,7.20
2022-11-22T17:08:59.746Z,7.20
2022-11-22T17:11:02.265Z,7.20
2022-11-22T17:13:05.057Z,7.30
2022-11-22T17:15:09.642Z,7.40
2022-11-22T17:17:12.152Z,7.40
2022-11-22T17:19:37.315Z,7.50
2022-11-22T17:21:23.367Z,7.50
2022-11-22T17:23:26.651Z,7.60
2022-11-22T17:25:29.152Z,7.60
2022-11-22T17:27:31.660Z,7.70
2022-11-22T17:29:49.740Z,7.70
2022-11-22T17:31:38.418Z,7.80
2022-11-22T17:33:40.938Z,7.90
2022-11-22T17:35:43.624Z,7.90
2022-11-22T17:37:46.101Z,7.90
2022-11-22T17:39:51.349Z,8.00
2022-11-22T17:41:53.935Z,8.00
2022-11-22T17:43:56.618Z,8.00
2022-11-22T17:46:00.297Z,8.00
2022-11-22T17:48:02.809Z,8.00
2022-11-22T17:50:06.157Z,8.10
2022-11-22T17:52:08.696Z,8.10
2022-11-22T17:54:11.336Z,8.10
2022-11-22T17:56:13.837Z,8.10
2022-11-22T17:58:16.363Z,8.10
2022-11-22T18:00:19.991Z,8.10
2022-11-22T18:02:22.489Z,8.20
2022-11-22T18:04:25.029Z,8.20
2022-11-22T18:06:28.550Z,8.20
2022-11-22T18:08:32.135Z,8.20
2022-11-22T18:10:34.638Z,8.20
2022-11-22T18:12:42.277Z,8.20
2022-11-22T18:14:43.499Z,8.20
2022-11-22T18:16:45.988Z,8.20
2022-11-22T18:18:57.454Z,8.20
2022-11-22T18:20:53.893Z,8.20
2022-11-22T18:22:56.348Z,8.20
2022-11-22T18:25:00.383Z,8.20
2022-11-22T18:27:02.933Z,8.20
2022-11-22T18:31:09.792Z,8.10
2022-11-22T18:33:12.723Z,8.10
2022-11-22T18:35:15.331Z,8.20
2022-11-22T18:37:18.017Z,8.10
2022-11-22T18:39:22.309Z,8.10
2022-11-22T18:41:24.813Z,8.10
2022-11-22T18:43:27.307Z,8.00
2022-11-22T18:45:30.184Z,8.00
2022-11-22T18:47:32.755Z,8.00
2022-11-22T18:49:35.763Z,8.00
2022-11-22T18:51:38.559Z,8.00
2022-11-22T18:53:41.690Z,8.00
2022-11-22T18:55:44.196Z,8.00
2022-11-22T18:57:48.478Z,8.00
2022-11-22T18:59:51.099Z,8.00
2022-11-22T19:01:53.617Z,8.00
2022-11-22T19:03:56.115Z,8.00
2022-11-22T19:05:58.694Z,8.00
2022-11-22T19:08:01.237Z,8.10
2022-11-22T19:10:04.225Z,8.10
2022-11-22T19:12:06.981Z,8.10
2022-11-22T19:14:09.449Z,8.10
2022-11-22T19:16:12.835Z,8.10
2022-11-22T19:18:16.290Z,8.10
2022-11-22T19:20:47.303Z,8.10
2022-11-22T19:22:23.859Z,8.10
2022-11-22T19:24:26.323Z,8.10
2022-11-22T19:26:28.817Z,8.10
2022-11-22T19:28:31.437Z,8.20
2022-11-22T19:30:34.089Z,8.10
2022-11-22T19:32:36.549Z,8.10
2022-11-22T19:34:39.046Z,8.10
2022-11-22T19:36:41.533Z,8.10
2022-11-22T19:38:45.762Z,8.10
2022-11-22T19:40:48.292Z,8.10
2022-11-22T19:42:50.776Z,8.10
2022-11-22T19:44:53.355Z,8.10
2022-11-22T19:46:55.851Z,8.20
2022-11-22T19:48:59.037Z,8.20
2022-11-22T19:51:04.996Z,8.20
2022-11-22T19:53:07.772Z,8.20
2022-11-22T19:55:10.352Z,8.20
2022-11-22T19:57:13.128Z,8.20
2022-11-22T19:59:16.544Z,8.20
2022-11-22T20:01:21.289Z,8.20
2022-11-22T20:03:24.348Z,8.20
2022-11-22T20:05:26.874Z,8.20
2022-11-22T20:07:30.128Z,8.10
2022-11-22T20:09:32.957Z,8.10
2022-11-22T20:11:36.464Z,8.10
2022-11-22T20:13:39.565Z,8.00
2022-11-22T20:15:42.174Z,8.10
2022-11-22T20:17:44.673Z,8.10
2022-11-22T20:19:47.193Z,8.00
2022-11-22T20:21:49.729Z,8.00
2022-11-22T20:23:52.869Z,7.90
2022-11-22T20:25:57.177Z,7.90
2022-11-22T20:27:59.811Z,7.90
2022-11-22T20:30:02.306Z,7.90
2022-11-22T20:32:05.658Z,7.90
2022-11-22T20:34:09.085Z,7.80
2022-11-22T20:36:12.841Z,7.90
2022-11-22T20:38:15.344Z,7.80
2022-11-22T20:40:17.963Z,7.80
2022-11-22T20:42:34.201Z,7.70
2022-11-22T20:44:25.951Z,7.70
2022-11-22T20:46:29.102Z,7.70
2022-11-22T20:48:32.181Z,7.70
2022-11-22T20:50:34.651Z,7.70
2022-11-22T20:52:37.162Z,7.70
2022-11-22T20:54:40.166Z,7.70
2022-11-22T20:56:42.674Z,7.70
2022-11-22T20:58:45.158Z,7.70
2022-11-22T21:00:47.883Z,7.70
2022-11-22T21:02:51.094Z,7.70
2022-11-22T21:04:53.661Z,7.70
2022-11-22T21:06:57.142Z,7.70
2022-11-22T21:08:59.635Z,7.80
2022-11-22T21:11:06.172Z,7.80
2022-11-22T21:13:08.745Z,7.80
2022-11-22T21:15:11.321Z,7.90
2022-11-22T21:17:37.549Z,7.90
2022-11-22T21:19:19.376Z,7.90
2022-11-22T21:21:23.383Z,7.80
2022-11-22T21:23:26.140Z,7.80
2022-11-22T21:25:29.010Z,7.90
2022-11-22T21:27:32.471Z,7.90
2022-11-22T21:29:36.226Z,7.90
2022-11-22T21:31:39.208Z,7.90
2022-11-22T21:33:42.085Z,7.90
2022-11-22T21:35:45.841Z,7.90
2022-11-22T21:37:51.273Z,7.90
2022-11-22T21:39:54.138Z,7.90
2022-11-22T21:41:57.311Z,8.00
2022-11-22T21:44:00.437Z,7.90
2022-11-22T21:46:03.701Z,8.00
2022-11-22T21:48:06.931Z,8.00
2022-11-22T21:50:12.198Z,8.00
2022-11-22T21:52:14.906Z,8.10
2022-11-22T21:54:17.487Z,8.10
2022-11-22T21:56:19.984Z,8.20
2022-11-22T21:58:23.757Z,8.20
2022-11-22T22:00:26.290Z,8.20
2022-11-22T22:02:29.028Z,8.30
2022-11-22T22:04:31.612Z,8.30
2022-11-22T22:06:34.093Z,8.30
2022-11-22T22:08:36.592Z,8.40
2022-11-22T22:10:39.448Z,8.40
2022-11-22T22:12:41.891Z,8.40
2022-11-22T22:14:47.436Z,8.40
2022-11-22T22:16:50.222Z,8.40
2022-11-22T22:18:52.978Z,8.40
2022-11-22T22:20:59.745Z,8.40
2022-11-22T22:23:02.323Z,8.40
2022-11-22T22:25:06.310Z,8.40
2022-11-22T22:27:09.112Z,8.40
2022-11-22T22:29:11.735Z,8.50
2022-11-22T22:31:16.439Z,8.50
2022-11-22T22:33:18.936Z,8.60
2022-11-22T22:35:22.683Z,8.60
2022-11-22T22:37:25.418Z,8.60
2022-11-22T22:39:28.225Z,8.80
2022-11-22T22:41:31.727Z,8.60
2022-11-22T22:43:35.607Z,8.60
2022-11-22T22:45:38.454Z,8.70
2022-11-22T22:47:40.998Z,8.60
2022-11-22T22:49:43.477Z,8.70
2022-11-22T22:51:46.001Z,8.70
2022-11-22T22:53:48.826Z,8.80
2022-11-22T22:55:54.044Z,8.80
2022-11-22T22:57:58.408Z,8.80
2022-11-22T23:00:01.469Z,8.80
2022-11-22T23:02:05.001Z,8.80
2022-11-22T23:04:08.176Z,8.80
2022-11-22T23:06:11.577Z,8.80
2022-11-22T23:08:14.073Z,8.80
2022-11-22T23:10:16.709Z,8.80
2022-11-22T23:12:19.364Z,8.80
2022-11-22T23:14:22.909Z,8.80
2022-11-22T23:16:26.504Z,8.80
2022-11-22T23:18:29.410Z,8.80
2022-11-22T23:20:32.220Z,8.80
2022-11-22T23:22:35.730Z,8.80
2022-11-22T23:24:38.745Z,8.80
2022-11-22T23:26:42.658Z,8.80
2022-11-22T23:28:45.177Z,8.90
2022-11-22T23:30:47.868Z,8.80
2022-11-22T23:32:50.571Z,8.90
2022-11-22T23:34:53.060Z,8.90
2022-11-22T23:36:56.527Z,9.00
2022-11-22T23:38:59.158Z,9.00
2022-11-22T23:41:01.811Z,8.90
2022-11-22T23:43:04.802Z,8.90
2022-11-22T23:45:08.568Z,8.90
2022-11-22T23:47:11.148Z,8.90
2022-11-22T23:49:13.669Z,8.90
2022-11-22T23:51:16.164Z,8.90
2022-11-22T23:53:19.941Z,8.90
2022-11-22T23:55:22.440Z,8.90
2022-11-22T23:57:24.954Z,8.90
2022-11-22T23:59:27.411Z,8.90
